sensor_id;sensor_type;location;lat;lon;timestamp;temperature;humidity
42141;DHT22;27809;51.864;5.646;2023-05-23T00:00:21;14.80;99.90
42141;DHT22;27809;51.864;5.646;2023-05-23T00:02:47;14.70;99.90
42141;DHT22;27809;51.864;5.646;2023-05-23T00:05:13;14.80;99.90
42141;DHT22;27809;51.864;5.646;2023-05-23T00:07:39;14.80;99.90
42141;DHT22;27809;51.864;5.646;2023-05-23T00:10:05;14.80;99.90
42141;DHT22;27809;51.864;5.646;2023-05-23T00:12:31;14.70;99.90
42141;DHT22;27809;51.864;5.646;2023-05-23T00:14:58;14.80;99.90
42141;DHT22;27809;51.864;5.646;2023-05-23T00:17:23;14.80;99.90
42141;DHT22;27809;51.864;5.646;2023-05-23T00:19:50;14.70;99.90
42141;DHT22;27809;51.864;5.646;2023-05-23T00:22:16;14.70;99.90
42141;DHT22;27809;51.864;5.646;2023-05-23T00:24:42;14.70;99.90
42141;DHT22;27809;51.864;5.646;2023-05-23T00:27:07;14.60;99.90
42141;DHT22;27809;51.864;5.646;2023-05-23T00:29:33;14.60;99.90
42141;DHT22;27809;51.864;5.646;2023-05-23T00:31:58;14.60;99.90
42141;DHT22;27809;51.864;5.646;2023-05-23T00:34:24;14.50;99.90
42141;DHT22;27809;51.864;5.646;2023-05-23T00:36:50;14.60;99.90
42141;DHT22;27809;51.864;5.646;2023-05-23T00:39:15;14.60;99.90
42141;DHT22;27809;51.864;5.646;2023-05-23T00:41:46;14.60;99.90
42141;DHT22;27809;51.864;5.646;2023-05-23T00:44:12;14.60;99.90
42141;DHT22;27809;51.864;5.646;2023-05-23T00:46:37;14.60;99.90
42141;DHT22;27809;51.864;5.646;2023-05-23T00:49:03;14.50;99.90
42141;DHT22;27809;51.864;5.646;2023-05-23T00:51:29;14.40;99.90
42141;DHT22;27809;51.864;5.646;2023-05-23T00:53:56;14.40;99.90
42141;DHT22;27809;51.864;5.646;2023-05-23T00:56:22;14.50;99.90
42141;DHT22;27809;51.864;5.646;2023-05-23T00:58:47;14.50;99.90
42141;DHT22;27809;51.864;5.646;2023-05-23T01:01:14;14.50;99.90
42141;DHT22;27809;51.864;5.646;2023-05-23T01:03:41;14.40;99.90
42141;DHT22;27809;51.864;5.646;2023-05-23T01:06:10;14.40;99.90
42141;DHT22;27809;51.864;5.646;2023-05-23T01:08:36;14.40;99.90
42141;DHT22;27809;51.864;5.646;2023-05-23T01:11:06;14.30;99.90
42141;DHT22;27809;51.864;5.646;2023-05-23T01:13:58;14.30;99.90
42141;DHT22;27809;51.864;5.646;2023-05-23T01:16:35;14.20;99.90
42141;DHT22;27809;51.864;5.646;2023-05-23T01:19:17;14.20;99.90
42141;DHT22;27809;51.864;5.646;2023-05-23T01:21:53;14.10;99.90
42141;DHT22;27809;51.864;5.646;2023-05-23T01:24:35;14.10;99.90
42141;DHT22;27809;51.864;5.646;2023-05-23T01:27:21;14.00;99.90
42141;DHT22;27809;51.864;5.646;2023-05-23T01:29:53;13.90;99.90
42141;DHT22;27809;51.864;5.646;2023-05-23T01:32:22;13.90;99.90
42141;DHT22;27809;51.864;5.646;2023-05-23T01:34:52;13.80;99.90
42141;DHT22;27809;51.864;5.646;2023-05-23T01:37:17;13.90;99.90
42141;DHT22;27809;51.864;5.646;2023-05-23T01:39:44;13.80;99.90
42141;DHT22;27809;51.864;5.646;2023-05-23T01:42:10;13.70;99.90
42141;DHT22;27809;51.864;5.646;2023-05-23T01:44:36;13.70;99.90
42141;DHT22;27809;51.864;5.646;2023-05-23T01:47:03;13.90;99.90
42141;DHT22;27809;51.864;5.646;2023-05-23T01:49:32;13.90;99.90
42141;DHT22;27809;51.864;5.646;2023-05-23T01:52:00;13.90;99.90
42141;DHT22;27809;51.864;5.646;2023-05-23T01:54:26;13.90;99.90
42141;DHT22;27809;51.864;5.646;2023-05-23T01:56:55;13.90;99.90
42141;DHT22;27809;51.864;5.646;2023-05-23T01:59:21;13.90;99.90
42141;DHT22;27809;51.864;5.646;2023-05-23T02:01:47;13.90;99.90
42141;DHT22;27809;51.864;5.646;2023-05-23T02:04:12;13.90;99.90
42141;DHT22;27809;51.864;5.646;2023-05-23T02:06:38;13.90;99.90
42141;DHT22;27809;51.864;5.646;2023-05-23T02:09:03;14.00;99.90
42141;DHT22;27809;51.864;5.646;2023-05-23T02:11:29;14.00;99.90
42141;DHT22;27809;51.864;5.646;2023-05-23T02:13:54;13.90;99.90
42141;DHT22;27809;51.864;5.646;2023-05-23T02:16:20;14.00;99.90
42141;DHT22;27809;51.864;5.646;2023-05-23T02:18:45;14.00;99.90
42141;DHT22;27809;51.864;5.646;2023-05-23T02:21:11;13.90;99.90
42141;DHT22;27809;51.864;5.646;2023-05-23T02:23:37;13.80;99.90
42141;DHT22;27809;51.864;5.646;2023-05-23T02:26:02;13.90;99.90
42141;DHT22;27809;51.864;5.646;2023-05-23T02:28:28;14.00;99.90
42141;DHT22;27809;51.864;5.646;2023-05-23T02:30:53;13.90;99.90
42141;DHT22;27809;51.864;5.646;2023-05-23T02:33:19;14.00;99.90
42141;DHT22;27809;51.864;5.646;2023-05-23T02:35:45;14.00;99.90
42141;DHT22;27809;51.864;5.646;2023-05-23T02:38:10;14.10;99.90
42141;DHT22;27809;51.864;5.646;2023-05-23T02:40:36;14.10;99.90
42141;DHT22;27809;51.864;5.646;2023-05-23T02:43:02;14.10;99.90
42141;DHT22;27809;51.864;5.646;2023-05-23T02:45:27;14.00;99.90
42141;DHT22;27809;51.864;5.646;2023-05-23T02:47:53;14.00;99.90
42141;DHT22;27809;51.864;5.646;2023-05-23T02:50:18;13.90;99.90
42141;DHT22;27809;51.864;5.646;2023-05-23T02:52:44;13.90;99.90
42141;DHT22;27809;51.864;5.646;2023-05-23T02:55:10;13.90;99.90
42141;DHT22;27809;51.864;5.646;2023-05-23T02:57:35;13.80;99.90
42141;DHT22;27809;51.864;5.646;2023-05-23T03:00:01;13.90;99.90
42141;DHT22;27809;51.864;5.646;2023-05-23T03:02:27;13.90;99.90
42141;DHT22;27809;51.864;5.646;2023-05-23T03:04:52;13.80;99.90
42141;DHT22;27809;51.864;5.646;2023-05-23T03:07:18;13.70;99.90
42141;DHT22;27809;51.864;5.646;2023-05-23T03:09:43;13.70;99.90
42141;DHT22;27809;51.864;5.646;2023-05-23T03:12:09;13.70;99.90
42141;DHT22;27809;51.864;5.646;2023-05-23T03:14:34;13.60;99.90
42141;DHT22;27809;51.864;5.646;2023-05-23T03:17:00;13.70;99.90
42141;DHT22;27809;51.864;5.646;2023-05-23T03:19:28;13.70;99.90
42141;DHT22;27809;51.864;5.646;2023-05-23T03:21:53;13.70;99.90
42141;DHT22;27809;51.864;5.646;2023-05-23T03:24:19;13.70;99.90
42141;DHT22;27809;51.864;5.646;2023-05-23T03:26:45;13.70;99.90
42141;DHT22;27809;51.864;5.646;2023-05-23T03:29:10;13.80;99.90
42141;DHT22;27809;51.864;5.646;2023-05-23T03:31:36;13.80;99.90
42141;DHT22;27809;51.864;5.646;2023-05-23T03:34:02;13.70;99.90
42141;DHT22;27809;51.864;5.646;2023-05-23T03:36:30;13.80;99.90
42141;DHT22;27809;51.864;5.646;2023-05-23T03:38:57;13.70;99.90
42141;DHT22;27809;51.864;5.646;2023-05-23T03:41:23;13.80;99.90
42141;DHT22;27809;51.864;5.646;2023-05-23T03:43:48;13.80;99.90
42141;DHT22;27809;51.864;5.646;2023-05-23T03:46:14;13.80;99.90
42141;DHT22;27809;51.864;5.646;2023-05-23T03:48:40;13.80;99.90
42141;DHT22;27809;51.864;5.646;2023-05-23T03:51:05;13.80;99.90
42141;DHT22;27809;51.864;5.646;2023-05-23T03:53:31;13.90;99.90
42141;DHT22;27809;51.864;5.646;2023-05-23T03:55:56;13.90;99.90
42141;DHT22;27809;51.864;5.646;2023-05-23T03:58:22;13.90;99.90
42141;DHT22;27809;51.864;5.646;2023-05-23T04:00:47;13.90;99.90
42141;DHT22;27809;51.864;5.646;2023-05-23T04:03:14;13.90;99.90
42141;DHT22;27809;51.864;5.646;2023-05-23T04:05:41;13.80;99.90
42141;DHT22;27809;51.864;5.646;2023-05-23T04:08:07;13.80;99.90
42141;DHT22;27809;51.864;5.646;2023-05-23T04:10:33;13.80;99.90
42141;DHT22;27809;51.864;5.646;2023-05-23T04:12:59;13.90;99.90
42141;DHT22;27809;51.864;5.646;2023-05-23T04:15:25;13.80;99.90
42141;DHT22;27809;51.864;5.646;2023-05-23T04:17:52;13.80;99.90
42141;DHT22;27809;51.864;5.646;2023-05-23T04:20:18;13.80;99.90
42141;DHT22;27809;51.864;5.646;2023-05-23T04:22:43;13.80;99.90
42141;DHT22;27809;51.864;5.646;2023-05-23T04:25:09;13.80;99.90
42141;DHT22;27809;51.864;5.646;2023-05-23T04:27:34;13.70;99.90
42141;DHT22;27809;51.864;5.646;2023-05-23T04:30:00;13.60;99.90
42141;DHT22;27809;51.864;5.646;2023-05-23T04:32:26;13.60;99.90
42141;DHT22;27809;51.864;5.646;2023-05-23T04:34:51;13.60;99.90
42141;DHT22;27809;51.864;5.646;2023-05-23T04:37:18;13.50;99.90
42141;DHT22;27809;51.864;5.646;2023-05-23T04:39:50;13.50;99.90
42141;DHT22;27809;51.864;5.646;2023-05-23T04:42:16;13.50;99.90
42141;DHT22;27809;51.864;5.646;2023-05-23T04:44:41;13.50;99.90
42141;DHT22;27809;51.864;5.646;2023-05-23T04:47:07;13.50;99.90
42141;DHT22;27809;51.864;5.646;2023-05-23T04:49:35;13.40;99.90
42141;DHT22;27809;51.864;5.646;2023-05-23T04:52:00;13.30;99.90
42141;DHT22;27809;51.864;5.646;2023-05-23T04:54:26;13.40;99.90
42141;DHT22;27809;51.864;5.646;2023-05-23T04:56:52;13.40;99.90
42141;DHT22;27809;51.864;5.646;2023-05-23T04:59:17;13.30;99.90
42141;DHT22;27809;51.864;5.646;2023-05-23T05:01:43;13.20;99.90
42141;DHT22;27809;51.864;5.646;2023-05-23T05:04:08;13.20;99.90
42141;DHT22;27809;51.864;5.646;2023-05-23T05:06:34;13.20;99.90
42141;DHT22;27809;51.864;5.646;2023-05-23T05:08:59;13.10;99.90
42141;DHT22;27809;51.864;5.646;2023-05-23T05:11:25;13.00;99.90
42141;DHT22;27809;51.864;5.646;2023-05-23T05:13:51;13.00;99.90
42141;DHT22;27809;51.864;5.646;2023-05-23T05:16:17;13.00;99.90
42141;DHT22;27809;51.864;5.646;2023-05-23T05:18:42;13.00;99.90
42141;DHT22;27809;51.864;5.646;2023-05-23T05:21:08;13.00;99.90
42141;DHT22;27809;51.864;5.646;2023-05-23T05:23:34;12.90;99.90
42141;DHT22;27809;51.864;5.646;2023-05-23T05:26:00;13.00;99.90
42141;DHT22;27809;51.864;5.646;2023-05-23T05:28:26;12.90;99.90
42141;DHT22;27809;51.864;5.646;2023-05-23T05:30:51;12.80;99.90
42141;DHT22;27809;51.864;5.646;2023-05-23T05:33:21;12.70;99.90
42141;DHT22;27809;51.864;5.646;2023-05-23T05:35:49;12.70;99.90
42141;DHT22;27809;51.864;5.646;2023-05-23T05:38:17;12.70;99.90
42141;DHT22;27809;51.864;5.646;2023-05-23T05:40:43;12.70;99.90
42141;DHT22;27809;51.864;5.646;2023-05-23T05:43:08;12.70;99.90
42141;DHT22;27809;51.864;5.646;2023-05-23T05:45:35;12.70;99.90
42141;DHT22;27809;51.864;5.646;2023-05-23T05:48:01;12.80;99.90
42141;DHT22;27809;51.864;5.646;2023-05-23T05:50:26;12.80;99.90
42141;DHT22;27809;51.864;5.646;2023-05-23T05:52:52;12.70;99.90
42141;DHT22;27809;51.864;5.646;2023-05-23T05:55:17;12.70;99.90
42141;DHT22;27809;51.864;5.646;2023-05-23T05:57:43;12.70;99.90
42141;DHT22;27809;51.864;5.646;2023-05-23T06:00:11;12.70;99.90
42141;DHT22;27809;51.864;5.646;2023-05-23T06:02:40;12.70;99.90
42141;DHT22;27809;51.864;5.646;2023-05-23T06:05:08;12.70;99.90
42141;DHT22;27809;51.864;5.646;2023-05-23T06:07:37;12.80;99.90
42141;DHT22;27809;51.864;5.646;2023-05-23T06:10:02;12.80;99.90
42141;DHT22;27809;51.864;5.646;2023-05-23T06:12:28;12.70;99.90
42141;DHT22;27809;51.864;5.646;2023-05-23T06:14:53;12.70;99.90
42141;DHT22;27809;51.864;5.646;2023-05-23T06:17:19;12.60;99.90
42141;DHT22;27809;51.864;5.646;2023-05-23T06:19:44;12.60;99.90
42141;DHT22;27809;51.864;5.646;2023-05-23T06:22:10;12.60;99.90
42141;DHT22;27809;51.864;5.646;2023-05-23T06:24:35;12.60;99.90
42141;DHT22;27809;51.864;5.646;2023-05-23T06:27:01;12.60;99.90
42141;DHT22;27809;51.864;5.646;2023-05-23T06:29:26;12.60;99.90
42141;DHT22;27809;51.864;5.646;2023-05-23T06:31:52;12.70;99.90
42141;DHT22;27809;51.864;5.646;2023-05-23T06:34:17;12.80;99.90
42141;DHT22;27809;51.864;5.646;2023-05-23T06:36:43;12.80;96.70
42141;DHT22;27809;51.864;5.646;2023-05-23T06:39:11;12.90;94.10
42141;DHT22;27809;51.864;5.646;2023-05-23T06:41:38;12.90;92.90
42141;DHT22;27809;51.864;5.646;2023-05-23T06:44:04;13.00;88.40
42141;DHT22;27809;51.864;5.646;2023-05-23T06:46:30;13.10;82.90
42141;DHT22;27809;51.864;5.646;2023-05-23T06:48:55;13.20;79.00
42141;DHT22;27809;51.864;5.646;2023-05-23T06:51:21;13.30;76.20
42141;DHT22;27809;51.864;5.646;2023-05-23T06:53:47;13.40;70.60
42141;DHT22;27809;51.864;5.646;2023-05-23T06:56:12;13.60;64.70
42141;DHT22;27809;51.864;5.646;2023-05-23T06:58:38;14.10;53.70
42141;DHT22;27809;51.864;5.646;2023-05-23T07:01:03;14.40;52.10
42141;DHT22;27809;51.864;5.646;2023-05-23T07:03:29;14.50;45.20
42141;DHT22;27809;51.864;5.646;2023-05-23T07:05:55;14.80;52.10
42141;DHT22;27809;51.864;5.646;2023-05-23T07:08:21;14.40;39.10
42141;DHT22;27809;51.864;5.646;2023-05-23T07:10:46;14.70;45.60
42141;DHT22;27809;51.864;5.646;2023-05-23T07:13:12;15.00;40.50
42141;DHT22;27809;51.864;5.646;2023-05-23T07:15:37;15.20;32.80
42141;DHT22;27809;51.864;5.646;2023-05-23T07:18:03;14.80;34.60
42141;DHT22;27809;51.864;5.646;2023-05-23T07:20:28;14.60;39.70
42141;DHT22;27809;51.864;5.646;2023-05-23T07:22:54;14.40;44.30
42141;DHT22;27809;51.864;5.646;2023-05-23T07:25:20;14.10;44.40
42141;DHT22;27809;51.864;5.646;2023-05-23T07:27:47;13.90;48.60
42141;DHT22;27809;51.864;5.646;2023-05-23T07:30:13;13.70;56.50
42141;DHT22;27809;51.864;5.646;2023-05-23T07:32:39;13.70;64.50
42141;DHT22;27809;51.864;5.646;2023-05-23T07:35:05;15.50;61.00
42141;DHT22;27809;51.864;5.646;2023-05-23T07:37:30;17.70;24.80
42141;DHT22;27809;51.864;5.646;2023-05-23T07:39:56;16.30;5.70
42141;DHT22;27809;51.864;5.646;2023-05-23T07:42:21;14.40;39.00
42141;DHT22;27809;51.864;5.646;2023-05-23T07:44:47;14.10;56.20
42141;DHT22;27809;51.864;5.646;2023-05-23T07:47:12;14.30;61.60
42141;DHT22;27809;51.864;5.646;2023-05-23T07:49:38;14.20;55.60
42141;DHT22;27809;51.864;5.646;2023-05-23T07:52:03;14.10;61.00
42141;DHT22;27809;51.864;5.646;2023-05-23T07:54:29;13.80;61.40
42141;DHT22;27809;51.864;5.646;2023-05-23T07:56:55;13.70;68.90
42141;DHT22;27809;51.864;5.646;2023-05-23T07:59:20;13.80;76.50
42141;DHT22;27809;51.864;5.646;2023-05-23T08:01:46;13.50;70.10
42141;DHT22;27809;51.864;5.646;2023-05-23T08:04:15;13.40;75.30
42141;DHT22;27809;51.864;5.646;2023-05-23T08:06:41;13.30;79.70
42141;DHT22;27809;51.864;5.646;2023-05-23T08:09:06;13.30;85.20
42141;DHT22;27809;51.864;5.646;2023-05-23T08:11:32;13.20;85.10
42141;DHT22;27809;51.864;5.646;2023-05-23T08:13:57;13.10;81.30
42141;DHT22;27809;51.864;5.646;2023-05-23T08:16:24;12.90;81.20
42141;DHT22;27809;51.864;5.646;2023-05-23T08:18:50;13.00;79.70
42141;DHT22;27809;51.864;5.646;2023-05-23T08:21:16;13.20;83.20
42141;DHT22;27809;51.864;5.646;2023-05-23T08:23:41;13.30;74.10
42141;DHT22;27809;51.864;5.646;2023-05-23T08:26:07;13.70;69.80
42141;DHT22;27809;51.864;5.646;2023-05-23T08:28:33;14.60;55.50
42141;DHT22;27809;51.864;5.646;2023-05-23T08:30:59;15.30;41.00
42141;DHT22;27809;51.864;5.646;2023-05-23T08:33:25;15.20;30.70
42141;DHT22;27809;51.864;5.646;2023-05-23T08:35:50;14.60;36.10
42141;DHT22;27809;51.864;5.646;2023-05-23T08:38:16;14.30;46.10
42141;DHT22;27809;51.864;5.646;2023-05-23T08:40:50;14.00;41.80
42141;DHT22;27809;51.864;5.646;2023-05-23T08:43:17;14.10;45.40
42141;DHT22;27809;51.864;5.646;2023-05-23T08:45:43;14.20;43.50
42141;DHT22;27809;51.864;5.646;2023-05-23T08:48:12;14.00;36.30
42141;DHT22;27809;51.864;5.646;2023-05-23T08:50:39;14.20;36.60
42141;DHT22;27809;51.864;5.646;2023-05-23T08:53:05;14.40;34.30
42141;DHT22;27809;51.864;5.646;2023-05-23T08:55:33;14.60;24.30
42141;DHT22;27809;51.864;5.646;2023-05-23T08:57:59;14.90;23.30
42141;DHT22;27809;51.864;5.646;2023-05-23T09:00:25;17.20;24.20
42141;DHT22;27809;51.864;5.646;2023-05-23T09:02:52;16.40;2.00
42141;DHT22;27809;51.864;5.646;2023-05-23T09:05:19;15.30;11.40
42141;DHT22;27809;51.864;5.646;2023-05-23T09:07:46;15.00;14.70
42141;DHT22;27809;51.864;5.646;2023-05-23T09:10:16;15.40;14.20
42141;DHT22;27809;51.864;5.646;2023-05-23T09:12:44;15.30;13.90
42141;DHT22;27809;51.864;5.646;2023-05-23T09:15:10;15.00;19.10
42141;DHT22;27809;51.864;5.646;2023-05-23T09:17:36;16.90;9.50
42141;DHT22;27809;51.864;5.646;2023-05-23T09:20:13;17.30;1.00
42141;DHT22;27809;51.864;5.646;2023-05-23T09:22:39;15.10;6.80
42141;DHT22;27809;51.864;5.646;2023-05-23T09:25:06;14.70;14.70
42141;DHT22;27809;51.864;5.646;2023-05-23T09:27:32;14.80;10.60
42141;DHT22;27809;51.864;5.646;2023-05-23T09:30:07;15.40;8.50
42141;DHT22;27809;51.864;5.646;2023-05-23T09:32:33;15.50;8.60
42141;DHT22;27809;51.864;5.646;2023-05-23T09:35:03;17.40;1.60
42141;DHT22;27809;51.864;5.646;2023-05-23T09:37:39;15.30;1.00
42141;DHT22;27809;51.864;5.646;2023-05-23T09:40:09;15.30;4.80
42141;DHT22;27809;51.864;5.646;2023-05-23T09:42:35;15.60;1.00
42141;DHT22;27809;51.864;5.646;2023-05-23T09:45:06;17.50;1.00
42141;DHT22;27809;51.864;5.646;2023-05-23T09:47:31;15.60;1.00
42141;DHT22;27809;51.864;5.646;2023-05-23T09:49:57;16.00;1.00
42141;DHT22;27809;51.864;5.646;2023-05-23T09:52:22;16.40;1.00
42141;DHT22;27809;51.864;5.646;2023-05-23T09:54:48;16.90;1.00
42141;DHT22;27809;51.864;5.646;2023-05-23T09:57:15;17.20;1.00
42141;DHT22;27809;51.864;5.646;2023-05-23T09:59:49;17.10;1.00
42141;DHT22;27809;51.864;5.646;2023-05-23T10:02:16;17.40;1.00
42141;DHT22;27809;51.864;5.646;2023-05-23T10:04:48;18.80;1.00
42141;DHT22;27809;51.864;5.646;2023-05-23T10:07:19;19.40;1.00
42141;DHT22;27809;51.864;5.646;2023-05-23T10:09:55;19.60;1.00
42141;DHT22;27809;51.864;5.646;2023-05-23T10:15:06;18.40;1.00
42141;DHT22;27809;51.864;5.646;2023-05-23T10:20:30;18.20;1.00
42141;DHT22;27809;51.864;5.646;2023-05-23T10:23:01;18.20;1.00
42141;DHT22;27809;51.864;5.646;2023-05-23T10:25:27;18.00;1.00
42141;DHT22;27809;51.864;5.646;2023-05-23T10:27:55;18.00;1.00
42141;DHT22;27809;51.864;5.646;2023-05-23T10:30:26;18.30;1.00
42141;DHT22;27809;51.864;5.646;2023-05-23T10:32:53;18.50;1.00
42141;DHT22;27809;51.864;5.646;2023-05-23T10:41:04;18.20;1.00
42141;DHT22;27809;51.864;5.646;2023-05-23T10:46:13;18.00;1.00
42141;DHT22;27809;51.864;5.646;2023-05-23T10:48:42;19.90;1.00
42141;DHT22;27809;51.864;5.646;2023-05-23T10:51:11;20.40;1.00
42141;DHT22;27809;51.864;5.646;2023-05-23T10:53:38;19.50;1.00
42141;DHT22;27809;51.864;5.646;2023-05-23T10:56:05;18.40;1.00
42141;DHT22;27809;51.864;5.646;2023-05-23T10:58:32;18.30;1.00
42141;DHT22;27809;51.864;5.646;2023-05-23T11:01:07;18.40;1.00
42141;DHT22;27809;51.864;5.646;2023-05-23T11:03:35;18.50;1.00
42141;DHT22;27809;51.864;5.646;2023-05-23T11:06:02;18.70;1.00
42141;DHT22;27809;51.864;5.646;2023-05-23T11:08:39;18.50;1.00
42141;DHT22;27809;51.864;5.646;2023-05-23T11:11:06;18.80;1.00
42141;DHT22;27809;51.864;5.646;2023-05-23T11:13:55;18.90;1.00
42141;DHT22;27809;51.864;5.646;2023-05-23T11:16:24;20.10;1.00
42141;DHT22;27809;51.864;5.646;2023-05-23T11:18:50;19.90;1.00
42141;DHT22;27809;51.864;5.646;2023-05-23T11:21:16;20.40;1.00
42141;DHT22;27809;51.864;5.646;2023-05-23T11:23:42;20.80;1.00
42141;DHT22;27809;51.864;5.646;2023-05-23T11:26:29;20.40;1.00
42141;DHT22;27809;51.864;5.646;2023-05-23T11:28:56;20.10;1.00
42141;DHT22;27809;51.864;5.646;2023-05-23T11:31:23;20.00;1.00
42141;DHT22;27809;51.864;5.646;2023-05-23T11:33:51;20.30;1.00
42141;DHT22;27809;51.864;5.646;2023-05-23T11:36:17;19.50;1.00
42141;DHT22;27809;51.864;5.646;2023-05-23T11:38:42;19.90;1.00
42141;DHT22;27809;51.864;5.646;2023-05-23T11:41:08;20.10;1.00
42141;DHT22;27809;51.864;5.646;2023-05-23T11:43:33;19.30;1.00
42141;DHT22;27809;51.864;5.646;2023-05-23T11:46:09;18.80;1.00
42141;DHT22;27809;51.864;5.646;2023-05-23T11:48:35;17.90;1.00
42141;DHT22;27809;51.864;5.646;2023-05-23T11:51:01;17.80;1.00
42141;DHT22;27809;51.864;5.646;2023-05-23T11:53:27;18.10;1.00
42141;DHT22;27809;51.864;5.646;2023-05-23T11:55:53;17.90;1.00
42141;DHT22;27809;51.864;5.646;2023-05-23T11:58:20;18.10;1.00
42141;DHT22;27809;51.864;5.646;2023-05-23T12:00:47;18.80;1.00
42141;DHT22;27809;51.864;5.646;2023-05-23T12:03:12;18.30;1.00
42141;DHT22;27809;51.864;5.646;2023-05-23T12:05:38;17.70;1.00
42141;DHT22;27809;51.864;5.646;2023-05-23T12:08:03;17.60;1.00
42141;DHT22;27809;51.864;5.646;2023-05-23T12:10:29;17.80;1.00
42141;DHT22;27809;51.864;5.646;2023-05-23T12:12:55;17.50;1.00
42141;DHT22;27809;51.864;5.646;2023-05-23T12:15:25;18.20;1.00
42141;DHT22;27809;51.864;5.646;2023-05-23T12:17:54;16.80;1.00
42141;DHT22;27809;51.864;5.646;2023-05-23T12:20:20;20.20;1.00
42141;DHT22;27809;51.864;5.646;2023-05-23T12:22:47;18.30;1.00
42141;DHT22;27809;51.864;5.646;2023-05-23T12:25:12;17.60;1.00
42141;DHT22;27809;51.864;5.646;2023-05-23T12:27:39;19.00;1.00
42141;DHT22;27809;51.864;5.646;2023-05-23T12:30:23;19.00;1.00
42141;DHT22;27809;51.864;5.646;2023-05-23T12:32:49;20.50;1.00
42141;DHT22;27809;51.864;5.646;2023-05-23T12:35:14;20.00;1.00
42141;DHT22;27809;51.864;5.646;2023-05-23T12:37:42;20.30;1.00
42141;DHT22;27809;51.864;5.646;2023-05-23T12:40:17;21.00;1.00
42141;DHT22;27809;51.864;5.646;2023-05-23T12:45:17;19.80;1.00
42141;DHT22;27809;51.864;5.646;2023-05-23T12:47:42;20.10;1.00
42141;DHT22;27809;51.864;5.646;2023-05-23T12:50:08;20.50;1.00
42141;DHT22;27809;51.864;5.646;2023-05-23T12:52:35;20.90;1.00
42141;DHT22;27809;51.864;5.646;2023-05-23T12:55:01;19.70;1.00
42141;DHT22;27809;51.864;5.646;2023-05-23T12:57:27;18.30;1.00
42141;DHT22;27809;51.864;5.646;2023-05-23T12:59:52;18.70;1.00
42141;DHT22;27809;51.864;5.646;2023-05-23T13:02:18;19.80;1.00
42141;DHT22;27809;51.864;5.646;2023-05-23T13:04:44;19.70;1.00
42141;DHT22;27809;51.864;5.646;2023-05-23T13:07:09;19.80;1.00
42141;DHT22;27809;51.864;5.646;2023-05-23T13:09:35;20.10;1.00
42141;DHT22;27809;51.864;5.646;2023-05-23T13:12:00;20.90;1.00
42141;DHT22;27809;51.864;5.646;2023-05-23T13:14:26;20.00;1.00
42141;DHT22;27809;51.864;5.646;2023-05-23T13:16:51;20.90;1.00
42141;DHT22;27809;51.864;5.646;2023-05-23T13:19:16;20.80;1.00
42141;DHT22;27809;51.864;5.646;2023-05-23T13:21:42;20.80;1.00
42141;DHT22;27809;51.864;5.646;2023-05-23T13:24:08;21.40;1.00
42141;DHT22;27809;51.864;5.646;2023-05-23T13:26:33;21.20;1.00
42141;DHT22;27809;51.864;5.646;2023-05-23T13:28:59;20.60;1.00
42141;DHT22;27809;51.864;5.646;2023-05-23T13:31:25;20.70;1.00
42141;DHT22;27809;51.864;5.646;2023-05-23T13:33:51;21.30;1.00
42141;DHT22;27809;51.864;5.646;2023-05-23T13:36:17;20.70;1.00
42141;DHT22;27809;51.864;5.646;2023-05-23T13:38:42;20.40;1.00
42141;DHT22;27809;51.864;5.646;2023-05-23T13:41:08;20.80;1.00
42141;DHT22;27809;51.864;5.646;2023-05-23T13:43:33;19.60;1.00
42141;DHT22;27809;51.864;5.646;2023-05-23T13:45:59;19.80;1.00
42141;DHT22;27809;51.864;5.646;2023-05-23T13:48:26;19.50;1.00
42141;DHT22;27809;51.864;5.646;2023-05-23T13:50:51;20.70;1.00
42141;DHT22;27809;51.864;5.646;2023-05-23T13:53:17;19.90;1.00
42141;DHT22;27809;51.864;5.646;2023-05-23T13:55:42;21.00;1.00
42141;DHT22;27809;51.864;5.646;2023-05-23T13:58:09;20.80;1.00
42141;DHT22;27809;51.864;5.646;2023-05-23T14:00:35;19.70;1.00
42141;DHT22;27809;51.864;5.646;2023-05-23T14:03:02;20.10;1.00
42141;DHT22;27809;51.864;5.646;2023-05-23T14:05:27;19.20;1.00
42141;DHT22;27809;51.864;5.646;2023-05-23T14:07:53;19.00;1.00
42141;DHT22;27809;51.864;5.646;2023-05-23T14:10:18;20.70;1.00
42141;DHT22;27809;51.864;5.646;2023-05-23T14:12:44;20.80;1.00
42141;DHT22;27809;51.864;5.646;2023-05-23T14:15:10;21.40;1.00
42141;DHT22;27809;51.864;5.646;2023-05-23T14:17:35;21.20;1.00
42141;DHT22;27809;51.864;5.646;2023-05-23T14:20:02;21.10;1.00
42141;DHT22;27809;51.864;5.646;2023-05-23T14:22:28;20.60;1.00
42141;DHT22;27809;51.864;5.646;2023-05-23T14:24:53;20.00;1.00
42141;DHT22;27809;51.864;5.646;2023-05-23T14:27:18;20.60;1.00
42141;DHT22;27809;51.864;5.646;2023-05-23T14:29:44;19.70;1.00
42141;DHT22;27809;51.864;5.646;2023-05-23T14:32:11;19.80;1.00
42141;DHT22;27809;51.864;5.646;2023-05-23T14:34:37;19.60;1.00
42141;DHT22;27809;51.864;5.646;2023-05-23T14:37:03;19.80;1.00
42141;DHT22;27809;51.864;5.646;2023-05-23T14:39:28;19.00;1.00
42141;DHT22;27809;51.864;5.646;2023-05-23T14:41:54;21.20;1.00
42141;DHT22;27809;51.864;5.646;2023-05-23T14:44:20;19.80;1.00
42141;DHT22;27809;51.864;5.646;2023-05-23T14:46:45;19.10;1.00
42141;DHT22;27809;51.864;5.646;2023-05-23T14:49:17;20.50;1.00
42141;DHT22;27809;51.864;5.646;2023-05-23T14:51:43;20.90;1.00
42141;DHT22;27809;51.864;5.646;2023-05-23T14:54:09;21.20;1.00
42141;DHT22;27809;51.864;5.646;2023-05-23T14:56:35;19.50;1.00
42141;DHT22;27809;51.864;5.646;2023-05-23T14:59:04;19.50;1.00
42141;DHT22;27809;51.864;5.646;2023-05-23T15:01:30;20.20;1.00
42141;DHT22;27809;51.864;5.646;2023-05-23T15:03:56;17.50;1.00
42141;DHT22;27809;51.864;5.646;2023-05-23T15:06:21;16.10;1.00
42141;DHT22;27809;51.864;5.646;2023-05-23T15:08:47;16.60;1.00
42141;DHT22;27809;51.864;5.646;2023-05-23T15:11:12;17.10;1.00
42141;DHT22;27809;51.864;5.646;2023-05-23T15:13:38;17.10;1.00
42141;DHT22;27809;51.864;5.646;2023-05-23T15:16:03;16.70;1.00
42141;DHT22;27809;51.864;5.646;2023-05-23T15:18:29;18.60;1.00
42141;DHT22;27809;51.864;5.646;2023-05-23T15:20:55;18.20;1.00
42141;DHT22;27809;51.864;5.646;2023-05-23T15:23:21;17.70;1.00
42141;DHT22;27809;51.864;5.646;2023-05-23T15:25:46;18.00;1.00
42141;DHT22;27809;51.864;5.646;2023-05-23T15:28:12;17.90;1.00
42141;DHT22;27809;51.864;5.646;2023-05-23T15:30:37;17.50;1.00
42141;DHT22;27809;51.864;5.646;2023-05-23T15:33:03;17.30;1.00
42141;DHT22;27809;51.864;5.646;2023-05-23T15:35:28;17.70;1.00
42141;DHT22;27809;51.864;5.646;2023-05-23T15:37:54;17.70;1.00
42141;DHT22;27809;51.864;5.646;2023-05-23T15:40:19;19.30;1.00
42141;DHT22;27809;51.864;5.646;2023-05-23T15:42:46;18.20;1.00
42141;DHT22;27809;51.864;5.646;2023-05-23T15:45:11;17.90;1.00
42141;DHT22;27809;51.864;5.646;2023-05-23T15:47:37;18.50;1.00
42141;DHT22;27809;51.864;5.646;2023-05-23T15:50:03;18.60;1.00